sensor_id;sensor_type;location;lat;lon;timestamp;temperature;humidity
32147;DHT22;32190;49.112;8.598;2022-07-21T00:00:28;29.90;45.30
32147;DHT22;32190;49.112;8.598;2022-07-21T00:06:19;29.80;45.30
32147;DHT22;32190;49.112;8.598;2022-07-21T00:12:09;29.70;45.50
32147;DHT22;32190;49.112;8.598;2022-07-21T00:18:00;29.70;45.40
32147;DHT22;32190;49.112;8.598;2022-07-21T00:23:51;29.70;45.60
32147;DHT22;32190;49.112;8.598;2022-07-21T00:29:41;29.70;45.30
32147;DHT22;32190;49.112;8.598;2022-07-21T00:35:32;29.70;45.30
32147;DHT22;32190;49.112;8.598;2022-07-21T00:41:22;29.60;45.20
32147;DHT22;32190;49.112;8.598;2022-07-21T00:47:13;29.50;45.30
32147;DHT22;32190;49.112;8.598;2022-07-21T00:53:03;29.50;45.40
32147;DHT22;32190;49.112;8.598;2022-07-21T00:58:54;29.50;45.30
32147;DHT22;32190;49.112;8.598;2022-07-21T01:04:45;29.50;45.40
32147;DHT22;32190;49.112;8.598;2022-07-21T01:10:36;29.40;45.40
32147;DHT22;32190;49.112;8.598;2022-07-21T01:16:26;29.40;45.40
32147;DHT22;32190;49.112;8.598;2022-07-21T01:22:17;29.40;45.60
32147;DHT22;32190;49.112;8.598;2022-07-21T01:28:07;29.30;45.60
32147;DHT22;32190;49.112;8.598;2022-07-21T01:33:58;29.20;45.70
32147;DHT22;32190;49.112;8.598;2022-07-21T01:39:51;29.10;45.60
32147;DHT22;32190;49.112;8.598;2022-07-21T01:46:01;29.00;46.00
32147;DHT22;32190;49.112;8.598;2022-07-21T01:51:51;29.00;46.00
32147;DHT22;32190;49.112;8.598;2022-07-21T01:57:42;29.00;45.90
32147;DHT22;32190;49.112;8.598;2022-07-21T02:03:32;29.00;45.90
32147;DHT22;32190;49.112;8.598;2022-07-21T02:09:23;29.00;46.20
32147;DHT22;32190;49.112;8.598;2022-07-21T02:15:13;28.90;46.20
32147;DHT22;32190;49.112;8.598;2022-07-21T02:21:05;28.80;46.40
32147;DHT22;32190;49.112;8.598;2022-07-21T02:26:55;28.70;46.20
32147;DHT22;32190;49.112;8.598;2022-07-21T02:32:46;28.70;46.40
32147;DHT22;32190;49.112;8.598;2022-07-21T02:38:36;28.60;46.50
32147;DHT22;32190;49.112;8.598;2022-07-21T02:44:27;28.60;46.70
32147;DHT22;32190;49.112;8.598;2022-07-21T02:50:21;28.50;46.90
32147;DHT22;32190;49.112;8.598;2022-07-21T02:56:11;28.50;47.10
32147;DHT22;32190;49.112;8.598;2022-07-21T03:02:02;28.40;46.80
32147;DHT22;32190;49.112;8.598;2022-07-21T03:07:52;28.40;47.00
32147;DHT22;32190;49.112;8.598;2022-07-21T03:13:43;28.40;47.00
32147;DHT22;32190;49.112;8.598;2022-07-21T03:19:34;28.30;46.80
32147;DHT22;32190;49.112;8.598;2022-07-21T03:25:25;28.30;47.10
32147;DHT22;32190;49.112;8.598;2022-07-21T03:31:16;28.20;47.30
32147;DHT22;32190;49.112;8.598;2022-07-21T03:37:06;28.10;46.90
32147;DHT22;32190;49.112;8.598;2022-07-21T03:42:58;28.10;47.30
32147;DHT22;32190;49.112;8.598;2022-07-21T03:48:49;28.10;47.40
32147;DHT22;32190;49.112;8.598;2022-07-21T03:54:40;28.10;47.10
32147;DHT22;32190;49.112;8.598;2022-07-21T04:00:37;28.10;47.10
32147;DHT22;32190;49.112;8.598;2022-07-21T04:06:28;28.00;47.90
32147;DHT22;32190;49.112;8.598;2022-07-21T04:12:18;28.00;47.50
32147;DHT22;32190;49.112;8.598;2022-07-21T04:18:09;28.00;47.40
32147;DHT22;32190;49.112;8.598;2022-07-21T04:24:00;28.00;47.40
32147;DHT22;32190;49.112;8.598;2022-07-21T04:29:50;27.90;47.60
32147;DHT22;32190;49.112;8.598;2022-07-21T04:35:41;27.90;47.30
32147;DHT22;32190;49.112;8.598;2022-07-21T04:41:32;27.90;47.40
32147;DHT22;32190;49.112;8.598;2022-07-21T04:47:23;27.90;47.80
32147;DHT22;32190;49.112;8.598;2022-07-21T04:53:14;27.90;47.40
32147;DHT22;32190;49.112;8.598;2022-07-21T04:59:04;28.00;47.70
32147;DHT22;32190;49.112;8.598;2022-07-21T05:04:55;28.00;47.80
32147;DHT22;32190;49.112;8.598;2022-07-21T05:10:45;28.00;48.10
32147;DHT22;32190;49.112;8.598;2022-07-21T05:16:36;28.00;47.70
32147;DHT22;32190;49.112;8.598;2022-07-21T05:22:27;28.00;47.70
32147;DHT22;32190;49.112;8.598;2022-07-21T05:28:17;28.10;47.90
32147;DHT22;32190;49.112;8.598;2022-07-21T05:34:08;28.20;48.30
32147;DHT22;32190;49.112;8.598;2022-07-21T05:39:58;28.20;48.10
32147;DHT22;32190;49.112;8.598;2022-07-21T05:45:49;28.30;48.40
32147;DHT22;32190;49.112;8.598;2022-07-21T05:51:39;28.50;48.00
32147;DHT22;32190;49.112;8.598;2022-07-21T05:57:30;29.00;48.20
32147;DHT22;32190;49.112;8.598;2022-07-21T06:03:21;29.80;48.00
32147;DHT22;32190;49.112;8.598;2022-07-21T06:09:11;30.90;47.60
32147;DHT22;32190;49.112;8.598;2022-07-21T06:15:03;32.10;46.80
32147;DHT22;32190;49.112;8.598;2022-07-21T06:20:53;33.30;45.50
32147;DHT22;32190;49.112;8.598;2022-07-21T06:26:44;34.30;44.10
32147;DHT22;32190;49.112;8.598;2022-07-21T06:32:34;35.00;43.10
32147;DHT22;32190;49.112;8.598;2022-07-21T06:38:25;35.40;42.00
32147;DHT22;32190;49.112;8.598;2022-07-21T06:44:15;35.70;41.60
32147;DHT22;32190;49.112;8.598;2022-07-21T06:50:07;36.00;40.80
32147;DHT22;32190;49.112;8.598;2022-07-21T06:55:58;36.10;40.40
32147;DHT22;32190;49.112;8.598;2022-07-21T07:01:48;36.30;40.00
32147;DHT22;32190;49.112;8.598;2022-07-21T07:07:39;36.30;39.50
32147;DHT22;32190;49.112;8.598;2022-07-21T07:13:30;36.20;39.40
32147;DHT22;32190;49.112;8.598;2022-07-21T07:19:21;35.90;39.10
32147;DHT22;32190;49.112;8.598;2022-07-21T07:25:11;35.30;38.90
32147;DHT22;32190;49.112;8.598;2022-07-21T07:31:02;34.70;39.30
32147;DHT22;32190;49.112;8.598;2022-07-21T07:36:52;33.90;39.60
32147;DHT22;32190;49.112;8.598;2022-07-21T07:42:45;33.10;40.30
32147;DHT22;32190;49.112;8.598;2022-07-21T07:48:35;32.60;40.90
32147;DHT22;32190;49.112;8.598;2022-07-21T07:54:26;32.20;41.40
32147;DHT22;32190;49.112;8.598;2022-07-21T08:00:18;31.90;41.50
32147;DHT22;32190;49.112;8.598;2022-07-21T08:06:09;31.70;41.60
32147;DHT22;32190;49.112;8.598;2022-07-21T08:12:00;31.50;41.80
32147;DHT22;32190;49.112;8.598;2022-07-21T08:17:51;31.40;42.00
32147;DHT22;32190;49.112;8.598;2022-07-21T08:23:41;31.20;41.90
32147;DHT22;32190;49.112;8.598;2022-07-21T08:29:32;31.00;42.20
32147;DHT22;32190;49.112;8.598;2022-07-21T08:35:23;31.00;42.60
32147;DHT22;32190;49.112;8.598;2022-07-21T08:41:13;31.00;42.60
32147;DHT22;32190;49.112;8.598;2022-07-21T08:47:04;31.00;42.60
32147;DHT22;32190;49.112;8.598;2022-07-21T08:52:55;31.00;42.50
32147;DHT22;32190;49.112;8.598;2022-07-21T08:58:49;31.00;42.40
32147;DHT22;32190;49.112;8.598;2022-07-21T09:04:39;30.90;42.10
32147;DHT22;32190;49.112;8.598;2022-07-21T09:10:31;30.90;42.30
32147;DHT22;32190;49.112;8.598;2022-07-21T09:16:52;30.80;43.00
32147;DHT22;32190;49.112;8.598;2022-07-21T09:23:01;30.70;42.30
32147;DHT22;32190;49.112;8.598;2022-07-21T09:28:51;30.60;42.30
32147;DHT22;32190;49.112;8.598;2022-07-21T09:34:43;30.60;42.50
32147;DHT22;32190;49.112;8.598;2022-07-21T09:40:46;30.70;42.70
32147;DHT22;32190;49.112;8.598;2022-07-21T09:46:37;30.60;42.70
32147;DHT22;32190;49.112;8.598;2022-07-21T09:52:36;30.70;42.70
32147;DHT22;32190;49.112;8.598;2022-07-21T09:58:27;30.70;43.00
32147;DHT22;32190;49.112;8.598;2022-07-21T10:04:19;30.60;42.60
32147;DHT22;32190;49.112;8.598;2022-07-21T10:10:13;30.40;42.50
32147;DHT22;32190;49.112;8.598;2022-07-21T10:16:05;30.30;42.20
32147;DHT22;32190;49.112;8.598;2022-07-21T10:22:25;30.20;43.00
32147;DHT22;32190;49.112;8.598;2022-07-21T10:28:17;30.10;42.90
32147;DHT22;32190;49.112;8.598;2022-07-21T10:34:08;30.10;42.50
32147;DHT22;32190;49.112;8.598;2022-07-21T10:39:59;30.00;42.60
32147;DHT22;32190;49.112;8.598;2022-07-21T10:45:50;30.00;42.40
32147;DHT22;32190;49.112;8.598;2022-07-21T10:51:44;30.10;42.30
32147;DHT22;32190;49.112;8.598;2022-07-21T10:57:40;30.30;42.20
32147;DHT22;32190;49.112;8.598;2022-07-21T11:03:34;30.50;42.20
32147;DHT22;32190;49.112;8.598;2022-07-21T11:09:25;30.80;41.90
32147;DHT22;32190;49.112;8.598;2022-07-21T11:21:38;31.10;40.90
32147;DHT22;32190;49.112;8.598;2022-07-21T11:27:34;31.20;40.30
32147;DHT22;32190;49.112;8.598;2022-07-21T11:33:25;31.40;40.40
32147;DHT22;32190;49.112;8.598;2022-07-21T11:39:16;31.40;39.90
32147;DHT22;32190;49.112;8.598;2022-07-21T11:45:10;31.50;39.90
32147;DHT22;32190;49.112;8.598;2022-07-21T11:51:05;31.60;39.60
32147;DHT22;32190;49.112;8.598;2022-07-21T11:56:58;31.60;39.60
32147;DHT22;32190;49.112;8.598;2022-07-21T12:02:48;31.70;40.10
32147;DHT22;32190;49.112;8.598;2022-07-21T12:08:39;31.80;39.70
32147;DHT22;32190;49.112;8.598;2022-07-21T12:14:47;31.90;39.60
32147;DHT22;32190;49.112;8.598;2022-07-21T12:20:41;31.90;38.70
32147;DHT22;32190;49.112;8.598;2022-07-21T12:26:32;31.80;38.50
32147;DHT22;32190;49.112;8.598;2022-07-21T12:32:47;31.80;38.50
32147;DHT22;32190;49.112;8.598;2022-07-21T12:38:45;31.60;38.80
32147;DHT22;32190;49.112;8.598;2022-07-21T12:44:37;31.70;39.00
32147;DHT22;32190;49.112;8.598;2022-07-21T12:50:28;31.80;38.10
32147;DHT22;32190;49.112;8.598;2022-07-21T13:02:10;31.90;37.80
32147;DHT22;32190;49.112;8.598;2022-07-21T13:08:01;32.00;38.20
32147;DHT22;32190;49.112;8.598;2022-07-21T13:13:51;32.00;37.50
32147;DHT22;32190;49.112;8.598;2022-07-21T13:19:42;32.10;37.70
32147;DHT22;32190;49.112;8.598;2022-07-21T13:25:32;32.20;37.50
32147;DHT22;32190;49.112;8.598;2022-07-21T13:31:24;32.30;37.50
32147;DHT22;32190;49.112;8.598;2022-07-21T13:37:15;32.50;37.40
32147;DHT22;32190;49.112;8.598;2022-07-21T13:43:05;32.70;37.00
32147;DHT22;32190;49.112;8.598;2022-07-21T13:48:56;32.90;37.10
32147;DHT22;32190;49.112;8.598;2022-07-21T13:54:47;32.90;35.90
32147;DHT22;32190;49.112;8.598;2022-07-21T14:00:37;33.00;35.50
32147;DHT22;32190;49.112;8.598;2022-07-21T14:06:28;33.00;36.00
32147;DHT22;32190;49.112;8.598;2022-07-21T14:12:19;33.10;36.30
32147;DHT22;32190;49.112;8.598;2022-07-21T14:18:10;33.10;35.70
32147;DHT22;32190;49.112;8.598;2022-07-21T14:24:00;33.20;35.80
32147;DHT22;32190;49.112;8.598;2022-07-21T14:30:09;33.30;36.00
32147;DHT22;32190;49.112;8.598;2022-07-21T14:36:00;33.30;35.60
32147;DHT22;32190;49.112;8.598;2022-07-21T14:41:51;33.30;35.60
32147;DHT22;32190;49.112;8.598;2022-07-21T14:47:41;33.40;35.80
32147;DHT22;32190;49.112;8.598;2022-07-21T14:53:32;33.50;35.50
32147;DHT22;32190;49.112;8.598;2022-07-21T14:59:23;33.60;36.00
32147;DHT22;32190;49.112;8.598;2022-07-21T15:05:13;33.70;35.50
32147;DHT22;32190;49.112;8.598;2022-07-21T15:11:06;33.80;35.60
32147;DHT22;32190;49.112;8.598;2022-07-21T15:16:57;33.90;34.80
32147;DHT22;32190;49.112;8.598;2022-07-21T15:22:47;34.00;35.10
32147;DHT22;32190;49.112;8.598;2022-07-21T15:28:38;34.00;34.90
32147;DHT22;32190;49.112;8.598;2022-07-21T15:34:29;34.00;35.00
32147;DHT22;32190;49.112;8.598;2022-07-21T15:40:19;33.90;34.80
32147;DHT22;32190;49.112;8.598;2022-07-21T15:46:10;33.90;35.00
32147;DHT22;32190;49.112;8.598;2022-07-21T15:52:01;33.90;35.50
32147;DHT22;32190;49.112;8.598;2022-07-21T15:57:52;33.90;35.00
32147;DHT22;32190;49.112;8.598;2022-07-21T16:03:43;33.90;35.00
32147;DHT22;32190;49.112;8.598;2022-07-21T16:09:34;33.90;35.40
32147;DHT22;32190;49.112;8.598;2022-07-21T16:15:25;34.00;35.30
32147;DHT22;32190;49.112;8.598;2022-07-21T16:21:16;34.10;35.60
32147;DHT22;32190;49.112;8.598;2022-07-21T16:27:06;34.10;35.00
32147;DHT22;32190;49.112;8.598;2022-07-21T16:32:57;34.10;34.70
32147;DHT22;32190;49.112;8.598;2022-07-21T16:38:47;34.00;35.00
32147;DHT22;32190;49.112;8.598;2022-07-21T16:44:39;33.90;35.50
32147;DHT22;32190;49.112;8.598;2022-07-21T16:50:30;33.80;34.60
32147;DHT22;32190;49.112;8.598;2022-07-21T16:56:21;33.80;34.60
32147;DHT22;32190;49.112;8.598;2022-07-21T17:02:11;33.70;34.80
32147;DHT22;32190;49.112;8.598;2022-07-21T17:08:02;33.70;34.70
32147;DHT22;32190;49.112;8.598;2022-07-21T17:13:53;33.60;34.50
32147;DHT22;32190;49.112;8.598;2022-07-21T17:19:43;33.40;35.20
32147;DHT22;32190;49.112;8.598;2022-07-21T17:25:34;33.40;35.40
32147;DHT22;32190;49.112;8.598;2022-07-21T17:31:24;33.40;35.30
32147;DHT22;32190;49.112;8.598;2022-07-21T17:37:15;33.30;35.60
32147;DHT22;32190;49.112;8.598;2022-07-21T17:43:06;33.20;35.30
32147;DHT22;32190;49.112;8.598;2022-07-21T17:48:57;33.20;35.20
32147;DHT22;32190;49.112;8.598;2022-07-21T17:54:47;33.10;35.60
32147;DHT22;32190;49.112;8.598;2022-07-21T18:00:38;33.00;36.00
32147;DHT22;32190;49.112;8.598;2022-07-21T18:06:28;33.10;35.70
32147;DHT22;32190;49.112;8.598;2022-07-21T18:12:19;33.10;36.00
32147;DHT22;32190;49.112;8.598;2022-07-21T18:18:11;33.10;35.80
32147;DHT22;32190;49.112;8.598;2022-07-21T18:24:02;33.00;35.90
32147;DHT22;32190;49.112;8.598;2022-07-21T18:29:53;33.00;36.00
32147;DHT22;32190;49.112;8.598;2022-07-21T18:35:44;33.10;36.20
32147;DHT22;32190;49.112;8.598;2022-07-21T18:41:34;33.10;36.40
32147;DHT22;32190;49.112;8.598;2022-07-21T18:47:25;33.20;36.20
32147;DHT22;32190;49.112;8.598;2022-07-21T18:53:16;33.20;36.60
32147;DHT22;32190;49.112;8.598;2022-07-21T18:59:06;33.20;36.70
32147;DHT22;32190;49.112;8.598;2022-07-21T19:04:57;33.20;36.80
32147;DHT22;32190;49.112;8.598;2022-07-21T19:10:48;33.10;36.80
32147;DHT22;32190;49.112;8.598;2022-07-21T19:16:38;33.00;36.90
32147;DHT22;32190;49.112;8.598;2022-07-21T19:22:29;33.00;37.10
32147;DHT22;32190;49.112;8.598;2022-07-21T19:28:19;32.80;37.00
32147;DHT22;32190;49.112;8.598;2022-07-21T19:34:10;32.80;37.00
32147;DHT22;32190;49.112;8.598;2022-07-21T19:40:01;32.70;37.20
32147;DHT22;32190;49.112;8.598;2022-07-21T19:45:51;32.60;37.50
32147;DHT22;32190;49.112;8.598;2022-07-21T19:51:42;32.50;37.20
32147;DHT22;32190;49.112;8.598;2022-07-21T19:57:33;32.40;37.30
32147;DHT22;32190;49.112;8.598;2022-07-21T20:03:24;32.30;37.60
32147;DHT22;32190;49.112;8.598;2022-07-21T20:09:14;32.10;37.60
32147;DHT22;32190;49.112;8.598;2022-07-21T20:15:06;32.00;37.80
32147;DHT22;32190;49.112;8.598;2022-07-21T20:20:57;31.80;37.80
32147;DHT22;32190;49.112;8.598;2022-07-21T20:26:49;31.70;38.00
32147;DHT22;32190;49.112;8.598;2022-07-21T20:32:40;31.50;38.10
32147;DHT22;32190;49.112;8.598;2022-07-21T20:38:31;31.40;38.00
32147;DHT22;32190;49.112;8.598;2022-07-21T20:44:22;31.30;38.10
32147;DHT22;32190;49.112;8.598;2022-07-21T20:50:13;31.20;38.20
32147;DHT22;32190;49.112;8.598;2022-07-21T20:56:03;31.10;38.60
32147;DHT22;32190;49.112;8.598;2022-07-21T21:01:54;31.00;38.80
32147;DHT22;32190;49.112;8.598;2022-07-21T21:07:44;31.00;38.90
32147;DHT22;32190;49.112;8.598;2022-07-21T21:13:35;30.90;38.80
32147;DHT22;32190;49.112;8.598;2022-07-21T21:19:26;30.80;38.90
32147;DHT22;32190;49.112;8.598;2022-07-21T21:25:16;30.70;38.90
32147;DHT22;32190;49.112;8.598;2022-07-21T21:31:07;30.60;38.90
32147;DHT22;32190;49.112;8.598;2022-07-21T21:36:58;30.50;39.00
32147;DHT22;32190;49.112;8.598;2022-07-21T21:42:48;30.30;39.00
32147;DHT22;32190;49.112;8.598;2022-07-21T21:48:39;30.20;39.20
32147;DHT22;32190;49.112;8.598;2022-07-21T21:54:30;30.00;39.30
32147;DHT22;32190;49.112;8.598;2022-07-21T22:00:22;29.80;39.50
32147;DHT22;32190;49.112;8.598;2022-07-21T22:06:13;29.70;40.10
32147;DHT22;32190;49.112;8.598;2022-07-21T22:12:03;29.60;40.10
32147;DHT22;32190;49.112;8.598;2022-07-21T22:17:54;29.50;40.20
32147;DHT22;32190;49.112;8.598;2022-07-21T22:23:45;29.50;40.30
32147;DHT22;32190;49.112;8.598;2022-07-21T22:29:35;29.40;40.30
32147;DHT22;32190;49.112;8.598;2022-07-21T22:35:26;29.30;40.60
32147;DHT22;32190;49.112;8.598;2022-07-21T22:41:16;29.30;40.80
32147;DHT22;32190;49.112;8.598;2022-07-21T22:47:07;29.20;40.70
32147;DHT22;32190;49.112;8.598;2022-07-21T22:52:58;29.20;40.90
32147;DHT22;32190;49.112;8.598;2022-07-21T22:58:49;29.20;41.00
32147;DHT22;32190;49.112;8.598;2022-07-21T23:04:39;29.20;41.00
32147;DHT22;32190;49.112;8.598;2022-07-21T23:10:30;29.10;40.90
32147;DHT22;32190;49.112;8.598;2022-07-21T23:16:20;29.00;40.90
32147;DHT22;32190;49.112;8.598;2022-07-21T23:22:11;28.90;41.20
32147;DHT22;32190;49.112;8.598;2022-07-21T23:28:02;28.80;41.20
32147;DHT22;32190;49.112;8.598;2022-07-21T23:33:52;28.80;41.20
32147;DHT22;32190;49.112;8.598;2022-07-21T23:39:43;28.70;41.30
32147;DHT22;32190;49.112;8.598;2022-07-21T23:45:34;28.60;41.40
32147;DHT22;32190;49.112;8.598;2022-07-21T23:51:25;28.50;41.40
32147;DHT22;32190;49.112;8.598;2022-07-21T23:57:15;28.50;41.60
